Time;durP1;ratioP1;P1;durP2;ratioP2;P2;SDS_P1;SDS_P2;PMS_P1;PMS_P2;Temp;Humidity;BMP_temperature;BMP_pressure;BME280_temperature;BME280_humidity;BME280_pressure;Samples;Min_cycle;Max_cycle;Signal;HPM_P1;HPM_P2
2023/04/23 00:00:57;;;;;;;0.80;0.80;;;;;;;7.33;84.06;99035.25;4484344;32;35257;-69
2023/04/23 00:03:26;;;;;;;0.77;0.77;;;;;;;7.08;84.78;99031.84;4471186;32;34443;-78
2023/04/23 00:05:56;;;;;;;1.98;1.85;;;;;;;7.00;84.35;99036.16;4471033;32;33520;-69
2023/04/23 00:08:26;;;;;;;2.58;1.75;;;;;;;6.85;85.71;99024.13;4470944;32;33229;-78
2023/04/23 00:10:54;;;;;;;1.27;1.27;;;;;;;6.93;85.78;99029.28;4484993;32;34717;-70
2023/04/23 00:13:23;;;;;;;1.48;1.27;;;;;;;6.90;86.32;99031.84;4484701;32;34553;-69
2023/04/23 00:15:51;;;;;;;1.20;1.15;;;;;;;6.86;85.21;99028.41;4484660;32;34235;-78
2023/04/23 00:18:19;;;;;;;2.65;2.15;;;;;;;7.12;83.44;99028.38;4471051;32;34012;-70
2023/04/23 00:20:47;;;;;;;1.23;1.23;;;;;;;6.81;85.37;99027.56;4486847;32;35027;-78
2023/04/23 00:23:16;;;;;;;2.08;1.87;;;;;;;6.99;84.70;99027.56;4486746;32;35211;-70
2023/04/23 00:25:44;;;;;;;1.15;1.15;;;;;;;6.82;85.72;99027.56;4486253;32;33365;-69
2023/04/23 00:28:12;;;;;;;1.30;1.20;;;;;;;6.64;86.14;99020.66;4486107;32;34655;-69
2023/04/23 00:30:41;;;;;;;0.65;0.65;;;;;;;6.33;87.76;99018.94;4485925;32;35172;-74
2023/04/23 00:33:09;;;;;;;1.75;1.50;;;;;;;6.45;87.68;99021.53;4486322;32;34541;-79
2023/04/23 00:35:38;;;;;;;0.88;0.88;;;;;;;6.57;87.17;99018.09;4472597;32;33447;-78
2023/04/23 00:38:06;;;;;;;2.37;2.17;;;;;;;6.42;87.94;99019.81;4486677;32;33874;-78
2023/04/23 00:40:34;;;;;;;0.70;0.70;;;;;;;6.96;85.80;99017.19;4486551;32;36113;-70
2023/04/23 00:43:03;;;;;;;0.65;0.65;;;;;;;7.06;83.89;99022.34;4472563;32;34473;-78
2023/04/23 00:45:32;;;;;;;0.95;0.95;;;;;;;7.25;81.65;99026.63;4472726;32;34360;-71
2023/04/23 00:48:01;;;;;;;1.02;1.02;;;;;;;6.65;86.07;99018.94;4486578;32;33764;-78
2023/04/23 00:50:29;;;;;;;1.15;1.15;;;;;;;7.18;82.29;99025.78;4486368;32;35085;-78
2023/04/23 00:52:59;;;;;;;0.73;0.73;;;;;;;6.60;85.82;99018.94;4471946;32;34354;-78
2023/04/23 00:55:27;;;;;;;0.95;0.95;;;;;;;6.63;85.52;99018.06;4485804;32;33573;-69
2023/04/23 00:57:55;;;;;;;0.95;0.95;;;;;;;6.13;88.38;99022.34;4471733;32;33900;-78
2023/04/23 01:00:23;;;;;;;0.95;0.95;;;;;;;6.06;89.92;99023.19;4486016;32;35899;-79
2023/04/23 01:02:52;;;;;;;0.80;0.80;;;;;;;5.83;90.27;99023.09;4485985;32;34425;-70
2023/04/23 01:05:22;;;;;;;0.82;0.82;;;;;;;6.17;88.10;99023.22;4485757;32;33439;-78
2023/04/23 01:07:51;;;;;;;1.83;1.73;;;;;;;6.17;89.29;99016.31;4485946;32;33177;-78
2023/04/23 01:10:20;;;;;;;1.23;1.23;;;;;;;5.87;90.96;99019.66;4485675;32;35107;-70
2023/04/23 01:12:48;;;;;;;3.20;1.83;;;;;;;6.41;87.51;99014.62;4485727;32;35199;-78
2023/04/23 01:15:17;;;;;;;1.52;1.42;;;;;;;5.99;90.23;99018.87;4471659;32;34555;-78
2023/04/23 01:17:45;;;;;;;1.67;1.15;;;;;;;6.25;87.05;99014.59;4485664;32;34461;-70
2023/04/23 01:20:15;;;;;;;1.10;1.02;;;;;;;6.28;87.33;99018.06;4485636;32;35895;-69
2023/04/23 01:22:43;;;;;;;0.90;0.90;;;;;;;6.43;86.27;99015.50;4485673;32;34471;-74
2023/04/23 01:25:11;;;;;;;1.67;1.58;;;;;;;5.43;91.66;99013.44;4486039;32;33487;-79
2023/04/23 01:27:40;;;;;;;0.77;0.77;;;;;;;5.15;94.71;99012.44;4485679;32;33874;-78
2023/04/23 01:30:09;;;;;;;0.93;0.93;;;;;;;5.79;91.93;99011.88;4470822;32;34675;-78
2023/04/23 01:32:38;;;;;;;2.45;2.05;;;;;;;5.67;91.90;99015.28;4471798;32;34801;-78
2023/04/23 01:35:06;;;;;;;1.55;1.45;;;;;;;5.51;92.61;99013.50;4485537;32;33520;-70
2023/04/23 01:37:36;;;;;;;1.08;1.08;;;;;;;5.24;95.03;99001.31;4485568;32;33912;-69
2023/04/23 01:40:07;;;;;;;0.77;0.77;;;;;;;5.14;96.06;99005.56;4485312;32;35942;-77
2023/04/23 01:42:35;;;;;;;1.08;1.08;;;;;;;5.44;94.51;99010.03;4485552;32;35099;-69
2023/04/23 01:45:06;;;;;;;2.35;2.15;;;;;;;5.44;93.60;99015.19;4471454;32;33037;-78
2023/04/23 01:47:35;;;;;;;2.28;1.92;;;;;;;5.38;94.80;99009.97;4486219;32;33979;-69
2023/04/23 01:50:04;;;;;;;1.00;1.00;;;;;;;5.29;94.48;99005.66;4486247;32;34985;-78
2023/04/23 01:52:32;;;;;;;1.35;1.35;;;;;;;5.32;95.24;99005.66;4471746;32;34495;-79
2023/04/23 01:55:01;;;;;;;4.00;2.60;;;;;;;5.22;95.13;98998.72;4485361;32;33197;-78
2023/04/23 01:57:29;;;;;;;1.08;1.08;;;;;;;5.34;94.84;99002.22;4485397;32;34776;-77
2023/04/23 02:00:09;;;;;;;1.23;1.23;;;;;;;5.30;94.68;99003.94;4485388;32;34924;-70
2023/04/23 02:02:40;;;;;;;2.05;1.92;;;;;;;5.61;92.28;98996.31;4472528;32;34471;-78
2023/04/23 02:05:13;;;;;;;5.07;1.92;;;;;;;5.25;94.99;98997.88;4486262;32;33746;-78
2023/04/23 02:07:42;;;;;;;0.70;0.70;;;;;;;5.27;95.55;98998.75;4486134;32;33795;-75
2023/04/23 02:10:11;;;;;;;0.95;0.95;;;;;;;5.10;96.49;98996.94;4486022;32;35084;-69
2023/04/23 02:12:40;;;;;;;1.20;1.20;;;;;;;5.46;94.36;98995.41;4472095;32;34649;-78
2023/04/23 02:15:09;;;;;;;1.20;1.20;;;;;;;5.42;93.65;98993.66;4485984;32;34237;-78
2023/04/23 02:17:40;;;;;;;0.98;0.98;;;;;;;5.11;95.34;98996.09;4486012;32;33906;-79
2023/04/23 02:20:10;;;;;;;1.27;1.25;;;;;;;5.05;96.46;98993.47;4486112;32;35764;-78
2023/04/23 02:22:40;;;;;;;0.70;0.70;;;;;;;5.22;95.47;98984.97;4485697;32;33960;-78
2023/04/23 02:25:08;;;;;;;1.12;1.12;;;;;;;4.80;98.23;98994.16;4485294;32;33672;-78
2023/04/23 02:27:37;;;;;;;0.70;0.70;;;;;;;5.49;94.46;98990.25;4471126;32;33938;-70
2023/04/23 02:30:07;;;;;;;1.02;1.02;;;;;;;4.98;97.01;98981.41;4485157;32;35874;-71
2023/04/23 02:32:36;;;;;;;0.70;0.70;;;;;;;4.86;97.59;98991.66;4471683;32;34450;-69
2023/04/23 02:35:05;;;;;;;1.35;1.27;;;;;;;4.91;98.60;98982.22;4472123;32;33475;-70
2023/04/23 02:37:34;;;;;;;2.78;2.58;;;;;;;5.06;97.68;98982.28;4485927;32;34763;-78
2023/04/23 02:40:04;;;;;;;0.90;0.90;;;;;;;4.91;97.86;98987.37;4485210;32;35890;-79
2023/04/23 02:42:33;;;;;;;1.15;1.15;;;;;;;5.42;95.51;98983.34;4485780;32;34699;-79
2023/04/23 02:45:02;;;;;;;1.27;1.17;;;;;;;5.31;95.30;98985.00;4471893;32;33294;-78
2023/04/23 02:47:30;;;;;;;1.30;1.30;;;;;;;5.22;94.44;98983.22;4471953;32;34776;-76
2023/04/23 02:50:01;;;;;;;1.08;1.08;;;;;;;5.03;96.91;98981.41;4485839;32;35112;-76
2023/04/23 02:52:31;;;;;;;0.95;0.95;;;;;;;5.35;96.59;98976.44;4485987;32;34551;-79
2023/04/23 02:55:03;;;;;;;1.08;1.08;;;;;;;5.22;95.82;98982.38;4486081;32;34467;-78
2023/04/23 02:57:31;;;;;;;0.82;0.80;;;;;;;5.18;94.42;98980.66;4472245;32;34770;-78
2023/04/23 03:00:00;;;;;;;1.08;0.95;;;;;;;4.93;96.00;98975.34;4484967;32;35906;-72
2023/04/23 03:02:30;;;;;;;0.93;0.93;;;;;;;4.89;96.37;98973.63;4485379;32;34264;-77
2023/04/23 03:04:58;;;;;;;0.80;0.80;;;;;;;4.93;96.64;98972.78;4485233;32;33362;-77
2023/04/23 03:07:27;;;;;;;5.78;2.30;;;;;;;5.12;95.44;98976.31;4485342;32;33995;-78
2023/04/23 03:09:55;;;;;;;0.77;0.77;;;;;;;5.09;94.14;98972.00;4485892;32;34928;-78
2023/04/23 03:12:23;;;;;;;0.60;0.60;;;;;;;4.80;96.34;98973.53;4485878;32;34353;-70
2023/04/23 03:14:51;;;;;;;2.83;2.62;;;;;;;4.82;96.90;98972.69;4485590;32;33600;-78
2023/04/23 03:17:20;;;;;;;0.93;0.93;;;;;;;5.08;95.33;98975.44;4485183;32;33948;-78
2023/04/23 03:19:48;;;;;;;0.95;0.95;;;;;;;4.75;97.01;98974.38;4485569;32;34924;-77
2023/04/23 03:22:17;;;;;;;0.52;0.52;;;;;;;5.08;96.72;98978.03;4485783;32;35289;-78
2023/04/23 03:24:45;;;;;;;0.70;0.70;;;;;;;4.73;98.53;98977.81;4485362;32;33461;-78
2023/04/23 03:27:14;;;;;;;7.97;2.95;;;;;;;4.80;97.56;98976.09;4484850;32;33944;-79
2023/04/23 03:29:42;;;;;;;0.65;0.65;;;;;;;4.64;99.48;98978.59;4470800;32;35931;-79
2023/04/23 03:32:10;;;;;;;0.85;0.85;;;;;;;4.49;100.00;98979.34;4484749;32;34449;-69
2023/04/23 03:34:39;;;;;;;0.65;0.65;;;;;;;4.71;99.43;98975.22;4484996;32;33353;-75
2023/04/23 03:37:08;;;;;;;0.80;0.80;;;;;;;4.71;97.02;98980.37;4485613;32;34002;-78
2023/04/23 03:39:37;;;;;;;0.50;0.50;;;;;;;4.78;97.60;98977.81;4485377;32;35027;-70
2023/04/23 03:42:06;;;;;;;0.50;0.50;;;;;;;4.53;99.29;98975.06;4485602;32;34444;-77
2023/04/23 03:44:35;;;;;;;0.95;0.93;;;;;;;4.49;99.89;98978.47;4485537;32;34427;-78
2023/04/23 03:47:03;;;;;;;5.00;4.53;;;;;;;5.11;97.57;98978.00;4485169;32;34774;-78
2023/04/23 03:49:31;;;;;;;1.02;1.02;;;;;;;4.76;96.89;98977.81;4485450;32;34944;-77
2023/04/23 03:52:00;;;;;;;0.70;0.70;;;;;;;4.72;98.09;98979.50;4484969;32;34536;-78
2023/04/23 03:54:28;;;;;;;1.10;1.10;;;;;;;4.60;99.82;98983.72;4483912;32;33362;-77
2023/04/23 03:57:00;;;;;;;1.00;0.98;;;;;;;4.56;99.34;98981.09;4471011;32;33591;-78
2023/04/23 03:59:29;;;;;;;1.05;1.05;;;;;;;4.74;99.69;98987.25;4470680;32;35129;-78
2023/04/23 04:01:58;;;;;;;0.60;0.60;;;;;;;4.70;99.36;98973.47;4485080;32;35096;-69
2023/04/23 04:04:27;;;;;;;2.17;2.08;;;;;;;4.80;99.96;98981.25;4484957;32;33443;-72
2023/04/23 04:06:56;;;;;;;0.93;0.93;;;;;;;5.38;95.72;98984.16;4484938;32;33821;-78
2023/04/23 04:09:26;;;;;;;0.70;0.70;;;;;;;5.25;96.41;98987.56;4471200;32;35851;-77
2023/04/23 04:11:58;;;;;;;1.90;1.80;;;;;;;4.85;98.57;98988.22;4484788;32;35174;-71
2023/04/23 04:14:26;;;;;;;0.80;0.80;;;;;;;4.93;100.00;98980.50;4484660;32;33538;-69
2023/04/23 04:16:55;;;;;;;0.62;0.62;;;;;;;5.37;98.72;98986.78;4485074;32;34034;-78
2023/04/23 04:19:24;;;;;;;0.60;0.60;;;;;;;5.01;100.00;98989.16;4484656;32;35032;-74
2023/04/23 04:21:52;;;;;;;1.87;1.77;;;;;;;5.11;100.00;98990.91;4484753;32;34525;-77
2023/04/23 04:24:20;;;;;;;0.82;0.82;;;;;;;5.57;100.00;98992.00;4457618;32;33514;-79
2023/04/23 04:26:51;;;;;;;0.70;0.70;;;;;;;6.33;96.69;98996.50;4484018;32;33952;-70
2023/04/23 04:29:20;;;;;;;0.65;0.65;;;;;;;7.34;91.53;98992.94;4483927;32;35178;-71
2023/04/23 04:31:48;;;;;;;1.23;1.20;;;;;;;7.42;86.70;98999.84;4483920;32;35242;-72
2023/04/23 04:34:16;;;;;;;1.37;1.37;;;;;;;8.09;83.54;99001.22;4484161;32;34409;-78
2023/04/23 04:36:46;;;;;;;0.77;0.70;;;;;;;9.03;80.46;98993.56;4484454;32;33920;-81
2023/04/23 04:39:14;;;;;;;1.12;1.12;;;;;;;9.80;77.28;99002.22;4484863;32;35868;-80
2023/04/23 04:41:42;;;;;;;0.80;0.80;;;;;;;10.20;74.02;99004.25;4484544;32;34438;-80
2023/04/23 04:44:13;;;;;;;3.90;1.85;;;;;;;10.00;74.79;99002.81;4484645;32;34257;-79
2023/04/23 04:46:41;;;;;;;0.62;0.62;;;;;;;10.12;75.62;99006.97;4470023;32;33058;-72
2023/04/23 04:49:10;;;;;;;0.70;0.70;;;;;;;9.93;77.15;99006.38;4468757;32;35108;-74
2023/04/23 04:51:40;;;;;;;0.93;0.85;;;;;;;9.78;79.89;99006.59;4457246;32;33658;-79
2023/04/23 04:54:08;;;;;;;0.75;0.75;;;;;;;10.22;74.15;99011.16;4484534;32;34397;-80
2023/04/23 04:56:36;;;;;;;1.08;1.08;;;;;;;9.63;80.05;99008.47;4484573;32;33885;-80
2023/04/23 04:59:04;;;;;;;0.50;0.50;;;;;;;9.78;77.77;99009.19;4468286;32;34948;-70
2023/04/23 05:01:33;;;;;;;1.73;1.05;;;;;;;10.09;80.42;99011.38;4470316;32;35179;-80
2023/04/23 05:04:01;;;;;;;0.82;0.82;;;;;;;10.73;73.43;99015.63;4484105;32;33254;-78
2023/04/23 05:06:31;;;;;;;1.20;1.12;;;;;;;11.29;74.44;99007.66;4471737;32;33575;-78
2023/04/23 05:09:00;;;;;;;0.70;0.70;;;;;;;12.05;74.58;99011.38;4486271;32;35058;-78
2023/04/23 05:11:28;;;;;;;0.73;0.73;;;;;;;12.08;72.78;99011.31;4472509;32;34438;-78
2023/04/23 05:13:57;;;;;;;2.35;1.33;;;;;;;12.71;69.84;99013.31;4486317;32;33723;-79
2023/04/23 05:16:25;;;;;;;1.37;1.27;;;;;;;13.08;67.50;99014.16;4483113;32;33898;-73
2023/04/23 05:18:53;;;;;;;1.70;1.60;;;;;;;13.34;67.91;99016.09;4470926;32;35878;-79
2023/04/23 05:21:22;;;;;;;2.53;1.85;;;;;;;13.98;60.61;99015.16;4456652;32;32903;-75
2023/04/23 05:23:50;;;;;;;1.05;1.00;;;;;;;14.98;52.05;99015.50;4456906;32;34339;-76
2023/04/23 05:26:19;;;;;;;5.05;2.60;;;;;;;14.90;50.92;99014.88;4470624;32;34646;-71
2023/04/23 05:28:48;;;;;;;1.52;1.42;;;;;;;14.99;55.04;99016.34;4456950;32;34922;-71
2023/04/23 05:31:17;;;;;;;2.50;1.90;;;;;;;15.30;54.73;99013.53;4470795;32;34535;-70
2023/04/23 05:33:46;;;;;;;1.48;1.37;;;;;;;15.96;51.22;99020.78;4470739;32;33513;-71
2023/04/23 05:36:17;;;;;;;2.55;2.35;;;;;;;16.47;47.67;99016.19;4470647;32;33824;-75
2023/04/23 05:38:46;;;;;;;1.95;1.35;;;;;;;16.49;47.54;99019.59;4470505;32;35119;-70
2023/04/23 05:41:14;;;;;;;1.62;1.55;;;;;;;16.70;47.51;99015.25;4453770;32;34994;-79
2023/04/23 05:43:43;;;;;;;1.75;1.42;;;;;;;16.92;45.57;99017.00;4462148;32;33464;-79
2023/04/23 05:46:11;;;;;;;1.05;1.05;;;;;;;17.37;47.46;99026.50;4470138;32;33457;-72
2023/04/23 05:48:39;;;;;;;1.35;1.25;;;;;;;16.14;50.96;99023.63;4469178;32;35009;-78
2023/04/23 05:51:08;;;;;;;2.03;1.92;;;;;;;16.04;51.16;99023.09;4467611;32;35202;-78
2023/04/23 05:53:36;;;;;;;2.45;1.83;;;;;;;15.87;53.08;99015.88;4454522;32;33542;-77
2023/04/23 05:56:04;;;;;;;1.20;1.10;;;;;;;16.36;50.84;99019.22;4462280;32;33775;-78
2023/04/23 05:58:33;;;;;;;1.83;1.73;;;;;;;15.51;53.25;99018.87;4455085;32;35245;-79
2023/04/23 06:01:01;;;;;;;1.50;1.40;;;;;;;15.55;55.44;99020.50;4455129;32;34456;-77
2023/04/23 06:03:30;;;;;;;4.10;2.75;;;;;;;16.11;55.78;99014.06;4456941;32;33691;-76
2023/04/23 06:05:58;;;;;;;1.48;1.37;;;;;;;15.97;53.09;99024.25;4470681;32;33958;-79
2023/04/23 06:08:26;;;;;;;0.93;0.93;;;;;;;16.32;51.58;99025.50;4470638;32;35992;-72
2023/04/23 06:10:55;;;;;;;1.30;1.17;;;;;;;17.84;46.78;99031.41;4470628;32;34554;-78
2023/04/23 06:13:23;;;;;;;1.77;1.67;;;;;;;17.57;50.30;99037.00;4469112;32;34480;-73
2023/04/23 06:15:51;;;;;;;2.35;2.08;;;;;;;17.42;50.05;99041.16;4460518;32;33846;-78
2023/04/23 06:18:20;;;;;;;3.25;1.42;;;;;;;17.50;49.91;99038.19;4460174;32;36037;-78
2023/04/23 06:20:50;;;;;;;1.75;1.65;;;;;;;17.68;47.54;99033.03;4462140;32;35287;-78
2023/04/23 06:23:18;;;;;;;1.87;1.67;;;;;;;18.09;49.04;99035.56;4470618;32;32667;-74
2023/04/23 06:25:46;;;;;;;2.20;2.00;;;;;;;19.10;44.19;99040.41;4470605;32;33900;-77
2023/04/23 06:28:15;;;;;;;1.30;1.15;;;;;;;19.75;44.85;99037.94;4470554;32;35991;-71
2023/04/23 06:30:43;;;;;;;1.05;1.05;;;;;;;18.78;47.43;99037.56;4469623;32;33886;-77
2023/04/23 06:33:12;;;;;;;0.95;0.75;;;;;;;19.10;45.00;99035.13;4470806;32;33458;-72
2023/04/23 06:35:40;;;;;;;1.48;1.37;;;;;;;19.65;42.46;99034.06;4470507;32;34716;-78
2023/04/23 06:38:08;;;;;;;1.40;1.30;;;;;;;19.13;46.11;99033.19;4470426;32;35798;-76
2023/04/23 06:40:37;;;;;;;0.57;0.57;;;;;;;18.99;48.02;99033.03;4479183;32;34492;-72
2023/04/23 06:43:06;;;;;;;2.30;1.58;;;;;;;19.20;46.64;99033.75;4472412;32;34117;-78
2023/04/23 06:45:36;;;;;;;1.35;1.27;;;;;;;19.56;45.72;99029.25;4486431;32;34639;-78
2023/04/23 06:48:05;;;;;;;1.27;1.20;;;;;;;19.76;45.73;99034.34;4486015;32;35294;-79
2023/04/23 06:50:33;;;;;;;1.83;1.27;;;;;;;20.42;42.37;99040.50;4472093;32;34470;-79
2023/04/23 06:53:01;;;;;;;2.03;1.37;;;;;;;21.64;39.56;99030.78;4485733;32;33435;-78
2023/04/23 06:55:30;;;;;;;2.70;2.45;;;;;;;20.48;42.32;99034.84;4457185;32;34850;-71
2023/04/23 06:57:58;;;;;;;1.62;1.50;;;;;;;20.85;37.59;99035.41;4470180;32;35101;-74
2023/04/23 07:00:26;;;;;;;3.15;2.87;;;;;;;20.71;40.77;99030.91;4456258;32;34514;-73
2023/04/23 07:02:55;;;;;;;1.10;1.00;;;;;;;21.39;37.90;99027.81;4470588;32;33788;-72
2023/04/23 07:05:23;;;;;;;0.85;0.85;;;;;;;22.45;29.79;99023.03;4470278;32;33802;-72
2023/04/23 07:07:51;;;;;;;1.40;1.30;;;;;;;21.59;30.82;99026.63;4470285;32;34916;-71
2023/04/23 07:10:20;;;;;;;0.57;0.57;;;;;;;21.82;38.53;99034.09;4470201;32;34459;-71
2023/04/23 07:12:48;;;;;;;1.12;1.08;;;;;;;22.38;32.79;99026.16;4456058;32;32031;-73
2023/04/23 07:15:16;;;;;;;1.62;0.98;;;;;;;22.52;29.87;99024.34;4456303;32;34031;-70
2023/04/23 07:17:45;;;;;;;2.80;1.50;;;;;;;22.83;28.63;99026.78;4470067;32;35073;-78
2023/04/23 07:20:14;;;;;;;1.45;1.23;;;;;;;22.36;28.90;99028.94;4456549;32;34820;-77
2023/04/23 07:22:42;;;;;;;1.12;1.02;;;;;;;22.81;28.69;99018.06;4470069;32;33571;-78
2023/04/23 07:25:10;;;;;;;1.62;1.23;;;;;;;22.95;27.98;99018.00;4470091;32;33832;-70
2023/04/23 07:27:39;;;;;;;1.10;0.75;;;;;;;23.27;27.85;99025.63;4455599;32;35078;-75
2023/04/23 07:30:08;;;;;;;0.90;0.32;;;;;;;23.16;27.12;99023.69;4469776;32;34539;-74
2023/04/23 07:32:36;;;;;;;5.87;2.50;;;;;;;22.80;28.81;99019.00;4456220;32;33466;-77
2023/04/23 07:35:05;;;;;;;0.90;0.90;;;;;;;22.45;29.78;99031.00;4456049;32;33952;-76
2023/04/23 07:37:33;;;;;;;3.12;2.17;;;;;;;23.17;27.49;99025.41;4469828;32;35783;-76
2023/04/23 07:40:01;;;;;;;0.77;0.77;;;;;;;23.17;26.95;99032.50;4469722;32;34340;-75
2023/04/23 07:42:30;;;;;;;1.40;1.02;;;;;;;22.21;30.61;99021.94;4456037;32;33169;-75
2023/04/23 07:44:58;;;;;;;1.85;1.65;;;;;;;22.98;27.48;99024.94;4455993;32;33961;-76
2023/04/23 07:47:27;;;;;;;0.80;0.80;;;;;;;23.09;28.09;99020.59;4455543;32;33844;-77
2023/04/23 07:49:55;;;;;;;1.02;0.85;;;;;;;23.05;27.69;99021.78;4469691;32;35209;-77
2023/04/23 07:52:23;;;;;;;1.50;1.40;;;;;;;23.56;27.47;99020.09;4469974;32;33514;-77
2023/04/23 07:54:51;;;;;;;3.97;1.17;;;;;;;23.03;29.12;99028.09;4469778;32;34744;-77
2023/04/23 07:57:20;;;;;;;0.82;0.80;;;;;;;22.95;28.85;99031.28;4469672;32;35105;-77
2023/04/23 07:59:48;;;;;;;1.40;1.30;;;;;;;23.37;28.98;99021.38;4469714;32;35331;-74
2023/04/23 08:02:17;;;;;;;0.62;0.62;;;;;;;23.96;29.20;99023.50;4469710;32;34177;-77
2023/04/23 08:04:45;;;;;;;1.15;1.05;;;;;;;24.32;25.90;99020.94;4469669;32;34018;-77
2023/04/23 08:07:14;;;;;;;1.15;0.73;;;;;;;23.67;27.92;99015.75;4469534;32;35086;-77
2023/04/23 08:09:42;;;;;;;0.55;0.55;;;;;;;24.00;27.28;99014.34;4469620;32;34340;-76
2023/04/23 08:12:11;;;;;;;0.75;0.75;;;;;;;24.70;26.26;99022.66;4469546;32;33460;-76
2023/04/23 08:14:39;;;;;;;10.52;1.92;;;;;;;24.54;26.42;99013.13;4469448;32;33906;-76
2023/04/23 08:17:08;;;;;;;1.37;1.27;;;;;;;25.73;24.44;99012.13;4469620;32;35856;-74
2023/04/23 08:19:36;;;;;;;3.12;2.83;;;;;;;24.17;27.65;99014.94;4469334;32;34457;-77
2023/04/23 08:22:04;;;;;;;1.42;1.08;;;;;;;23.56;27.36;99009.47;4469443;32;33464;-77
2023/04/23 08:24:32;;;;;;;2.58;1.17;;;;;;;24.68;26.66;99013.94;4469363;32;34051;-77
2023/04/23 08:27:01;;;;;;;1.42;1.23;;;;;;;24.56;27.66;99015.69;4469371;32;35933;-77
2023/04/23 08:29:29;;;;;;;0.93;0.88;;;;;;;24.29;27.70;99011.38;4469222;32;35278;-72
2023/04/23 08:31:57;;;;;;;0.73;0.73;;;;;;;24.58;29.44;99011.09;4469238;32;33426;-76
2023/04/23 08:34:26;;;;;;;0.43;0.43;;;;;;;25.99;25.39;99010.09;4469335;32;33967;-74
2023/04/23 08:36:54;;;;;;;0.50;0.50;;;;;;;25.07;26.54;99009.22;4469197;32;35857;-76
2023/04/23 08:39:22;;;;;;;1.17;1.08;;;;;;;24.81;25.22;99005.88;4469117;32;34516;-75
2023/04/23 08:41:54;;;;;;;1.33;1.23;;;;;;;24.85;27.21;99007.31;4444503;32;33094;-76
2023/04/23 08:44:24;;;;;;;1.80;1.10;;;;;;;24.85;27.47;99002.00;4457568;32;34080;-76
2023/04/23 08:46:54;;;;;;;2.30;1.73;;;;;;;24.34;28.77;99009.25;4471270;32;35279;-77
2023/04/23 08:49:23;;;;;;;1.40;1.30;;;;;;;24.67;27.67;98996.25;4457436;32;34385;-77
2023/04/23 08:51:54;;;;;;;4.90;2.12;;;;;;;24.51;27.86;99001.81;4471308;32;34125;-75
2023/04/23 08:54:27;;;;;;;1.42;1.23;;;;;;;24.69;26.51;98997.84;4457414;32;34834;-76
2023/04/23 08:56:57;;;;;;;2.40;1.95;;;;;;;25.33;28.27;98999.28;4471239;32;35895;-75
2023/04/23 08:59:26;;;;;;;2.12;1.67;;;;;;;24.37;28.26;98995.72;4457473;32;33651;-77
2023/04/23 09:01:54;;;;;;;2.42;1.15;;;;;;;24.14;27.54;99004.50;4471241;32;34516;-77
2023/04/23 09:04:24;;;;;;;3.42;1.20;;;;;;;23.81;29.33;98998.00;4471184;32;33983;-76
2023/04/23 09:06:54;;;;;;;0.88;0.88;;;;;;;25.80;25.50;98992.03;4457301;32;35797;-76
2023/04/23 09:09:23;;;;;;;1.23;1.10;;;;;;;25.88;25.81;98994.91;4457172;32;34554;-76
2023/04/23 09:11:51;;;;;;;1.90;1.67;;;;;;;26.19;27.82;98989.81;4471248;32;33317;-74
2023/04/23 09:14:26;;;;;;;1.12;1.05;;;;;;;25.62;25.59;98993.47;4471049;32;33246;-77
2023/04/23 09:16:54;;;;;;;1.17;1.08;;;;;;;24.16;27.17;98992.81;4471122;32;35886;-76
2023/04/23 09:19:26;;;;;;;3.22;1.50;;;;;;;25.28;24.51;98985.44;4470946;32;34513;-76
2023/04/23 09:21:54;;;;;;;1.40;1.25;;;;;;;25.60;24.84;98990.09;4457377;32;34347;-76
2023/04/23 09:24:23;;;;;;;0.32;0.30;;;;;;;25.41;26.31;98986.19;4471165;32;34050;-76
2023/04/23 09:26:52;;;;;;;2.20;1.77;;;;;;;25.40;25.55;98989.81;4470905;32;35005;-71
2023/04/23 09:29:22;;;;;;;1.83;1.48;;;;;;;24.95;27.00;98984.38;4456964;32;35220;-76
2023/04/23 09:31:55;;;;;;;1.02;0.90;;;;;;;24.49;25.15;98977.97;4457112;32;32968;-74
2023/04/23 09:34:24;;;;;;;2.22;1.77;;;;;;;24.61;26.52;98976.25;4457355;32;33862;-76
2023/04/23 09:36:53;;;;;;;1.23;1.12;;;;;;;24.94;26.10;98977.34;4470795;32;35054;-76
2023/04/23 09:39:21;;;;;;;0.60;0.60;;;;;;;25.35;25.35;98982.19;4456658;32;34473;-73
2023/04/23 09:41:53;;;;;;;1.75;1.37;;;;;;;24.98;25.34;98979.66;4456923;32;33480;-72
2023/04/23 09:44:21;;;;;;;0.80;0.80;;;;;;;25.16;24.18;98972.06;4457089;32;34058;-71
2023/04/23 09:46:50;;;;;;;0.93;0.93;;;;;;;24.63;27.68;98969.00;4456833;32;36018;-73
2023/04/23 09:49:18;;;;;;;1.73;1.58;;;;;;;25.01;24.59;98983.91;4470778;32;34546;-77
2023/04/23 09:51:48;;;;;;;2.53;1.27;;;;;;;25.30;26.13;98973.69;4470211;32;33314;-76
2023/04/23 09:54:20;;;;;;;0.68;0.57;;;;;;;25.62;24.73;98972.13;4470770;32;34008;-77
2023/04/23 09:56:52;;;;;;;0.82;0.82;;;;;;;25.64;23.07;98976.41;4456971;32;36022;-75
2023/04/23 09:59:21;;;;;;;0.62;0.60;;;;;;;25.61;23.63;98965.13;4457076;32;33929;-72
2023/04/23 10:02:05;;;;;;;0.57;0.57;;;;;;;25.21;26.22;98965.53;4458512;32;33503;-75
2023/04/23 10:04:34;;;;;;;0.65;0.62;;;;;;;25.96;22.39;98961.47;4470770;32;34005;-76
2023/04/23 10:07:07;;;;;;;0.68;0.68;;;;;;;26.93;22.38;98951.69;4470667;32;35830;-75
2023/04/23 10:09:47;;;;;;;2.87;1.65;;;;;;;26.81;21.61;98956.25;4458562;32;34527;-76
2023/04/23 10:12:16;;;;;;;0.88;0.80;;;;;;;26.66;21.88;98953.03;4470641;32;33416;-76
2023/04/23 10:14:49;;;;;;;1.10;0.90;;;;;;;26.93;21.65;98937.47;4470751;32;34784;-73
2023/04/23 10:17:17;;;;;;;0.82;0.82;;;;;;;26.78;22.46;98945.81;4470623;32;35047;-75
2023/04/23 10:19:45;;;;;;;0.95;0.80;;;;;;;27.06;23.92;98940.81;4470516;32;34340;-76
2023/04/23 10:22:15;;;;;;;0.60;0.60;;;;;;;26.81;23.04;98942.06;4456838;32;33506;-77
2023/04/23 10:24:54;;;;;;;0.52;0.52;;;;;;;27.31;19.67;98936.88;4457205;32;33924;-76
2023/04/23 10:27:28;;;;;;;1.83;1.30;;;;;;;27.65;18.94;98941.13;4470650;32;35954;-74
2023/04/23 10:30:16;;;;;;;0.30;0.30;;;;;;;26.23;19.78;98940.56;4459397;32;34893;-72
2023/04/23 10:32:45;;;;;;;1.23;1.12;;;;;;;27.14;18.80;98934.78;4470564;32;34395;-76
2023/04/23 10:35:13;;;;;;;1.87;1.58;;;;;;;26.77;19.87;98938.78;4456581;32;33906;-77
2023/04/23 10:37:42;;;;;;;1.25;0.77;;;;;;;26.26;20.78;98923.44;4470525;32;35044;-76
2023/04/23 10:40:13;;;;;;;0.35;0.35;;;;;;;26.94;20.86;98929.34;4456326;32;34824;-72
2023/04/23 10:42:42;;;;;;;0.30;0.30;;;;;;;26.92;20.92;98923.28;4456618;32;33494;-76
2023/04/23 10:45:15;;;;;;;2.45;2.17;;;;;;;27.09;20.29;98920.97;4456651;32;33987;-72
2023/04/23 10:47:56;;;;;;;6.15;0.95;;;;;;;26.91;19.62;98924.25;4470401;32;35817;-76
2023/04/23 10:50:25;;;;;;;0.85;0.75;;;;;;;27.12;20.04;98921.56;4470474;32;35309;-76
2023/04/23 10:52:56;;;;;;;1.10;1.10;;;;;;;27.31;21.32;98920.00;4470457;32;34270;-75
2023/04/23 10:55:27;;;;;;;1.12;0.77;;;;;;;27.68;19.76;98919.44;4470446;32;33951;-75
2023/04/23 10:58:03;;;;;;;0.70;0.47;;;;;;;27.70;19.14;98914.81;4456391;32;34212;-74
2023/04/23 11:00:46;;;;;;;0.52;0.52;;;;;;;26.61;19.04;98923.22;4456510;32;34383;-72
2023/04/23 11:03:41;;;;;;;0.88;0.85;;;;;;;26.63;18.54;98915.91;4470473;32;33598;-77
2023/04/23 11:06:16;;;;;;;0.40;0.40;;;;;;;27.34;22.52;98912.56;4469031;32;34046;-71
2023/04/23 11:08:52;;;;;;;0.25;0.25;;;;;;;28.17;18.14;98913.25;4444036;32;35013;-77
2023/04/23 11:11:39;;;;;;;0.50;0.32;;;;;;;28.45;16.03;98916.09;4470259;32;34327;-71
2023/04/23 11:14:14;;;;;;;0.85;0.80;;;;;;;28.49;16.77;98912.13;4456228;32;32639;-76
2023/04/23 11:16:43;;;;;;;0.65;0.65;;;;;;;27.75;15.69;98908.06;4470374;32;34737;-77
2023/04/23 11:19:11;;;;;;;1.87;0.98;;;;;;;27.77;16.58;98919.47;4470016;32;35927;-72
2023/04/23 11:22:05;;;;;;;11.30;1.37;;;;;;;28.51;16.57;98910.16;4470130;32;35057;-76
2023/04/23 11:24:36;;;;;;;0.45;0.45;;;;;;;29.29;16.83;98903.84;4470420;32;34183;-76
2023/04/23 11:27:05;;;;;;;29.42;1.20;;;;;;;29.26;18.42;98913.03;4456313;32;33309;-78
2023/04/23 11:29:36;;;;;;;0.20;0.20;;;;;;;28.91;15.41;98901.09;4456203;32;34383;-76
2023/04/23 11:32:09;;;;;;;0.37;0.37;;;;;;;28.93;15.32;98899.12;4456092;32;34440;-77
2023/04/23 11:34:43;;;;;;;0.75;0.65;;;;;;;28.92;17.18;98896.59;4456867;32;33429;-77
2023/04/23 11:37:14;;;;;;;0.98;0.98;;;;;;;28.78;16.85;98900.56;4469884;32;33776;-78
2023/04/23 11:39:44;;;;;;;0.43;0.43;;;;;;;28.92;18.66;98886.72;4446485;32;305279;-77
2023/04/23 11:42:13;;;;;;;7.40;1.33;;;;;;;28.34;18.11;98892.09;4456046;32;34330;-72
2023/04/23 11:44:43;;;;;;;0.30;0.30;;;;;;;27.66;18.42;98892.00;4469874;32;34362;-75
2023/04/23 11:47:13;;;;;;;1.40;0.80;;;;;;;27.73;17.14;98891.31;4456015;32;33682;-72